sensor_id;sensor_type;location;lat;lon;timestamp;pressure;altitude;pressure_sealevel;temperature;humidity
57412;BME280;43247;52.828;-8.980;2023-07-30T00:00:37;100681.08;;;16.65;87.45
57412;BME280;43247;52.828;-8.980;2023-07-30T00:01:38;100680.90;;;16.65;87.49
57412;BME280;43247;52.828;-8.980;2023-07-30T00:02:38;100680.05;;;16.64;87.44
57412;BME280;43247;52.828;-8.980;2023-07-30T00:03:38;100683.08;;;16.64;87.38
57412;BME280;43247;52.828;-8.980;2023-07-30T00:04:38;100680.46;;;16.64;87.32
57412;BME280;43247;52.828;-8.980;2023-07-30T00:05:38;100681.80;;;16.64;87.33
57412;BME280;43247;52.828;-8.980;2023-07-30T00:06:38;100681.70;;;16.64;87.34
57412;BME280;43247;52.828;-8.980;2023-07-30T00:07:38;100683.81;;;16.63;87.30
57412;BME280;43247;52.828;-8.980;2023-07-30T00:08:39;100687.87;;;16.63;87.31
57412;BME280;43247;52.828;-8.980;2023-07-30T00:09:39;100682.68;;;16.63;87.41
57412;BME280;43247;52.828;-8.980;2023-07-30T00:10:39;100686.28;;;16.63;87.29
57412;BME280;43247;52.828;-8.980;2023-07-30T00:11:39;100686.51;;;16.63;87.49
57412;BME280;43247;52.828;-8.980;2023-07-30T00:12:39;100689.62;;;16.64;87.60
57412;BME280;43247;52.828;-8.980;2023-07-30T00:13:40;100687.72;;;16.64;87.57
57412;BME280;43247;52.828;-8.980;2023-07-30T00:14:40;100692.13;;;16.63;87.53
57412;BME280;43247;52.828;-8.980;2023-07-30T00:15:40;100691.07;;;16.64;87.59
57412;BME280;43247;52.828;-8.980;2023-07-30T00:16:40;100695.07;;;16.64;87.54
57412;BME280;43247;52.828;-8.980;2023-07-30T00:17:40;100695.53;;;16.63;87.63
57412;BME280;43247;52.828;-8.980;2023-07-30T00:18:40;100697.51;;;16.64;87.58
57412;BME280;43247;52.828;-8.980;2023-07-30T00:19:40;100695.81;;;16.63;87.44
57412;BME280;43247;52.828;-8.980;2023-07-30T00:20:41;100692.49;;;16.64;87.47
57412;BME280;43247;52.828;-8.980;2023-07-30T00:21:41;100693.33;;;16.64;87.47
57412;BME280;43247;52.828;-8.980;2023-07-30T00:22:41;100695.80;;;16.63;87.47
57412;BME280;43247;52.828;-8.980;2023-07-30T00:23:42;100695.15;;;16.64;87.57
57412;BME280;43247;52.828;-8.980;2023-07-30T00:24:42;100692.62;;;16.64;87.52
57412;BME280;43247;52.828;-8.980;2023-07-30T00:25:42;100694.91;;;16.63;87.59
57412;BME280;43247;52.828;-8.980;2023-07-30T00:26:42;100697.13;;;16.63;87.62
57412;BME280;43247;52.828;-8.980;2023-07-30T00:27:42;100698.78;;;16.63;87.67
57412;BME280;43247;52.828;-8.980;2023-07-30T00:28:42;100701.85;;;16.62;87.77
57412;BME280;43247;52.828;-8.980;2023-07-30T00:29:42;100704.79;;;16.63;87.70
57412;BME280;43247;52.828;-8.980;2023-07-30T00:30:43;100707.67;;;16.63;87.72
57412;BME280;43247;52.828;-8.980;2023-07-30T00:31:43;100711.06;;;16.63;87.70
57412;BME280;43247;52.828;-8.980;2023-07-30T00:32:43;100710.28;;;16.62;87.73
57412;BME280;43247;52.828;-8.980;2023-07-30T00:33:44;100713.14;;;16.63;87.75
57412;BME280;43247;52.828;-8.980;2023-07-30T00:34:44;100709.72;;;16.62;87.58
57412;BME280;43247;52.828;-8.980;2023-07-30T00:35:44;100714.65;;;16.62;87.64
57412;BME280;43247;52.828;-8.980;2023-07-30T00:36:44;100713.80;;;16.62;87.68
57412;BME280;43247;52.828;-8.980;2023-07-30T00:37:45;100712.97;;;16.63;87.67
57412;BME280;43247;52.828;-8.980;2023-07-30T00:38:45;100704.99;;;16.62;87.66
57412;BME280;43247;52.828;-8.980;2023-07-30T00:39:45;100705.06;;;16.62;87.74
57412;BME280;43247;52.828;-8.980;2023-07-30T00:40:45;100703.57;;;16.62;87.81
57412;BME280;43247;52.828;-8.980;2023-07-30T00:41:46;100698.76;;;16.61;87.76
57412;BME280;43247;52.828;-8.980;2023-07-30T00:42:46;100696.90;;;16.61;87.74
57412;BME280;43247;52.828;-8.980;2023-07-30T00:43:46;100699.42;;;16.61;87.76
57412;BME280;43247;52.828;-8.980;2023-07-30T00:44:46;100699.48;;;16.60;87.63
57412;BME280;43247;52.828;-8.980;2023-07-30T00:45:47;100704.49;;;16.60;87.59
57412;BME280;43247;52.828;-8.980;2023-07-30T00:46:47;100701.88;;;16.61;87.66
57412;BME280;43247;52.828;-8.980;2023-07-30T00:47:47;100702.49;;;16.60;87.68
57412;BME280;43247;52.828;-8.980;2023-07-30T00:48:47;100703.06;;;16.59;87.70
57412;BME280;43247;52.828;-8.980;2023-07-30T00:49:47;100698.12;;;16.58;87.63
57412;BME280;43247;52.828;-8.980;2023-07-30T00:50:47;100700.42;;;16.59;87.68
57412;BME280;43247;52.828;-8.980;2023-07-30T00:51:48;100702.55;;;16.59;87.75
57412;BME280;43247;52.828;-8.980;2023-07-30T00:52:48;100702.44;;;16.58;87.83
57412;BME280;43247;52.828;-8.980;2023-07-30T00:53:48;100702.13;;;16.58;87.87
57412;BME280;43247;52.828;-8.980;2023-07-30T00:54:48;100702.45;;;16.58;87.86
57412;BME280;43247;52.828;-8.980;2023-07-30T00:55:49;100701.54;;;16.57;87.85
57412;BME280;43247;52.828;-8.980;2023-07-30T00:56:51;100704.05;;;16.57;87.86
57412;BME280;43247;52.828;-8.980;2023-07-30T00:57:49;100708.00;;;16.56;87.89
57412;BME280;43247;52.828;-8.980;2023-07-30T00:58:49;100704.03;;;16.56;87.89
57412;BME280;43247;52.828;-8.980;2023-07-30T00:59:50;100704.70;;;16.55;87.89
57412;BME280;43247;52.828;-8.980;2023-07-30T01:00:50;100703.99;;;16.55;87.74
57412;BME280;43247;52.828;-8.980;2023-07-30T01:01:51;100705.93;;;16.55;87.76
57412;BME280;43247;52.828;-8.980;2023-07-30T01:02:50;100708.39;;;16.54;87.86
57412;BME280;43247;52.828;-8.980;2023-07-30T01:03:50;100710.17;;;16.54;87.92
57412;BME280;43247;52.828;-8.980;2023-07-30T01:04:50;100709.46;;;16.53;87.91
57412;BME280;43247;52.828;-8.980;2023-07-30T01:05:50;100710.04;;;16.53;87.90
57412;BME280;43247;52.828;-8.980;2023-07-30T01:06:50;100710.78;;;16.53;87.99
57412;BME280;43247;52.828;-8.980;2023-07-30T01:07:50;100709.92;;;16.52;87.98
57412;BME280;43247;52.828;-8.980;2023-07-30T01:08:50;100710.55;;;16.52;87.90
57412;BME280;43247;52.828;-8.980;2023-07-30T01:09:51;100710.92;;;16.51;87.89
57412;BME280;43247;52.828;-8.980;2023-07-30T01:10:51;100711.12;;;16.51;88.00
57412;BME280;43247;52.828;-8.980;2023-07-30T01:11:52;100708.16;;;16.51;88.04
57412;BME280;43247;52.828;-8.980;2023-07-30T01:12:51;100708.98;;;16.51;88.05
57412;BME280;43247;52.828;-8.980;2023-07-30T01:13:51;100706.05;;;16.51;88.01
57412;BME280;43247;52.828;-8.980;2023-07-30T01:14:51;100704.89;;;16.50;87.99
57412;BME280;43247;52.828;-8.980;2023-07-30T01:15:51;100707.36;;;16.50;88.06
57412;BME280;43247;52.828;-8.980;2023-07-30T01:16:52;100708.86;;;16.50;88.11
57412;BME280;43247;52.828;-8.980;2023-07-30T01:17:52;100711.28;;;16.50;88.16
57412;BME280;43247;52.828;-8.980;2023-07-30T01:18:52;100711.77;;;16.50;88.14
57412;BME280;43247;52.828;-8.980;2023-07-30T01:19:53;100711.45;;;16.49;88.15
57412;BME280;43247;52.828;-8.980;2023-07-30T01:20:53;100715.41;;;16.49;88.13
57412;BME280;43247;52.828;-8.980;2023-07-30T01:21:52;100717.44;;;16.50;88.16
57412;BME280;43247;52.828;-8.980;2023-07-30T01:22:52;100716.82;;;16.49;88.19
57412;BME280;43247;52.828;-8.980;2023-07-30T01:23:53;100715.28;;;16.49;88.22
57412;BME280;43247;52.828;-8.980;2023-07-30T01:24:53;100717.23;;;16.49;88.19
57412;BME280;43247;52.828;-8.980;2023-07-30T01:26:00;100720.22;;;16.49;88.20
57412;BME280;43247;52.828;-8.980;2023-07-30T01:26:56;100717.73;;;16.49;88.25
57412;BME280;43247;52.828;-8.980;2023-07-30T01:27:55;100720.13;;;16.48;88.15
57412;BME280;43247;52.828;-8.980;2023-07-30T01:28:56;100723.15;;;16.49;88.21
57412;BME280;43247;52.828;-8.980;2023-07-30T01:29:59;100721.35;;;16.49;88.25
57412;BME280;43247;52.828;-8.980;2023-07-30T01:30:55;100720.27;;;16.48;88.25
57412;BME280;43247;52.828;-8.980;2023-07-30T01:31:56;100721.05;;;16.48;88.27
57412;BME280;43247;52.828;-8.980;2023-07-30T01:32:55;100719.97;;;16.48;88.32
57412;BME280;43247;52.828;-8.980;2023-07-30T01:33:55;100719.42;;;16.48;88.39
57412;BME280;43247;52.828;-8.980;2023-07-30T01:34:56;100718.36;;;16.48;88.31
57412;BME280;43247;52.828;-8.980;2023-07-30T01:35:55;100716.83;;;16.48;88.29
57412;BME280;43247;52.828;-8.980;2023-07-30T01:36:56;100713.89;;;16.48;88.35
57412;BME280;43247;52.828;-8.980;2023-07-30T01:37:55;100714.61;;;16.48;88.35
57412;BME280;43247;52.828;-8.980;2023-07-30T01:38:56;100710.27;;;16.47;88.28
57412;BME280;43247;52.828;-8.980;2023-07-30T01:39:55;100712.34;;;16.47;88.23
57412;BME280;43247;52.828;-8.980;2023-07-30T01:40:55;100711.11;;;16.47;88.30
57412;BME280;43247;52.828;-8.980;2023-07-30T01:41:55;100710.78;;;16.47;88.38
57412;BME280;43247;52.828;-8.980;2023-07-30T01:42:55;100709.69;;;16.46;88.38
57412;BME280;43247;52.828;-8.980;2023-07-30T01:43:55;100710.15;;;16.46;88.44
57412;BME280;43247;52.828;-8.980;2023-07-30T01:44:56;100710.98;;;16.46;88.44
57412;BME280;43247;52.828;-8.980;2023-07-30T01:45:56;100709.67;;;16.46;88.48
57412;BME280;43247;52.828;-8.980;2023-07-30T01:46:56;100711.42;;;16.45;88.47
57412;BME280;43247;52.828;-8.980;2023-07-30T01:47:56;100709.82;;;16.45;88.44
57412;BME280;43247;52.828;-8.980;2023-07-30T01:48:56;100710.81;;;16.45;88.47
57412;BME280;43247;52.828;-8.980;2023-07-30T01:49:56;100712.10;;;16.45;88.50
57412;BME280;43247;52.828;-8.980;2023-07-30T01:50:57;100712.96;;;16.45;88.45
57412;BME280;43247;52.828;-8.980;2023-07-30T01:51:57;100712.20;;;16.44;88.48
57412;BME280;43247;52.828;-8.980;2023-07-30T01:52:57;100712.74;;;16.44;88.53
57412;BME280;43247;52.828;-8.980;2023-07-30T01:53:57;100710.02;;;16.43;88.47
57412;BME280;43247;52.828;-8.980;2023-07-30T01:54:57;100709.18;;;16.43;88.40
57412;BME280;43247;52.828;-8.980;2023-07-30T01:55:57;100708.83;;;16.43;88.51
57412;BME280;43247;52.828;-8.980;2023-07-30T01:56:57;100709.11;;;16.43;88.50
57412;BME280;43247;52.828;-8.980;2023-07-30T01:57:58;100710.01;;;16.42;88.49
57412;BME280;43247;52.828;-8.980;2023-07-30T01:58:58;100710.94;;;16.42;88.46
57412;BME280;43247;52.828;-8.980;2023-07-30T01:59:58;100710.13;;;16.42;88.48
57412;BME280;43247;52.828;-8.980;2023-07-30T02:00:58;100709.56;;;16.42;88.51
57412;BME280;43247;52.828;-8.980;2023-07-30T02:01:58;100710.32;;;16.42;88.50
57412;BME280;43247;52.828;-8.980;2023-07-30T02:02:58;100710.60;;;16.41;88.48
57412;BME280;43247;52.828;-8.980;2023-07-30T02:03:59;100709.73;;;16.41;88.52
57412;BME280;43247;52.828;-8.980;2023-07-30T02:04:59;100710.86;;;16.41;88.59
57412;BME280;43247;52.828;-8.980;2023-07-30T02:05:59;100710.96;;;16.41;88.42
57412;BME280;43247;52.828;-8.980;2023-07-30T02:06:59;100709.82;;;16.41;88.43
57412;BME280;43247;52.828;-8.980;2023-07-30T02:08:00;100712.87;;;16.41;88.39
57412;BME280;43247;52.828;-8.980;2023-07-30T02:09:00;100710.23;;;16.41;88.36
57412;BME280;43247;52.828;-8.980;2023-07-30T02:10:00;100711.61;;;16.41;88.39
57412;BME280;43247;52.828;-8.980;2023-07-30T02:11:00;100713.20;;;16.40;88.39
57412;BME280;43247;52.828;-8.980;2023-07-30T02:12:00;100713.05;;;16.40;88.41
57412;BME280;43247;52.828;-8.980;2023-07-30T02:13:00;100714.86;;;16.40;88.39
57412;BME280;43247;52.828;-8.980;2023-07-30T02:14:01;100716.59;;;16.40;88.36
57412;BME280;43247;52.828;-8.980;2023-07-30T02:15:01;100719.40;;;16.40;88.37
57412;BME280;43247;52.828;-8.980;2023-07-30T02:16:01;100721.44;;;16.40;88.40
57412;BME280;43247;52.828;-8.980;2023-07-30T02:17:01;100722.66;;;16.40;88.44
57412;BME280;43247;52.828;-8.980;2023-07-30T02:18:01;100725.08;;;16.40;88.48
57412;BME280;43247;52.828;-8.980;2023-07-30T02:19:01;100726.75;;;16.40;88.46
57412;BME280;43247;52.828;-8.980;2023-07-30T02:20:04;100729.84;;;16.40;88.49
57412;BME280;43247;52.828;-8.980;2023-07-30T02:21:03;100731.16;;;16.39;88.46
57412;BME280;43247;52.828;-8.980;2023-07-30T02:22:04;100732.65;;;16.40;88.46
57412;BME280;43247;52.828;-8.980;2023-07-30T02:23:04;100730.63;;;16.40;88.47
57412;BME280;43247;52.828;-8.980;2023-07-30T02:24:04;100731.95;;;16.40;88.45
57412;BME280;43247;52.828;-8.980;2023-07-30T02:25:05;100730.27;;;16.40;88.50
57412;BME280;43247;52.828;-8.980;2023-07-30T02:26:04;100731.09;;;16.39;88.50
57412;BME280;43247;52.828;-8.980;2023-07-30T02:27:05;100731.10;;;16.40;88.52
57412;BME280;43247;52.828;-8.980;2023-07-30T02:28:04;100730.90;;;16.40;88.39
57412;BME280;43247;52.828;-8.980;2023-07-30T02:29:05;100730.15;;;16.40;88.44
57412;BME280;43247;52.828;-8.980;2023-07-30T02:30:06;100727.14;;;16.39;88.40
57412;BME280;43247;52.828;-8.980;2023-07-30T02:31:05;100726.40;;;16.39;88.40
57412;BME280;43247;52.828;-8.980;2023-07-30T02:32:06;100723.48;;;16.39;88.48
57412;BME280;43247;52.828;-8.980;2023-07-30T02:33:05;100718.90;;;16.39;88.49
57412;BME280;43247;52.828;-8.980;2023-07-30T02:34:05;100721.04;;;16.39;88.47
57412;BME280;43247;52.828;-8.980;2023-07-30T02:35:06;100719.93;;;16.39;88.42
57412;BME280;43247;52.828;-8.980;2023-07-30T02:36:05;100719.19;;;16.39;88.44
57412;BME280;43247;52.828;-8.980;2023-07-30T02:37:06;100722.55;;;16.39;88.44
57412;BME280;43247;52.828;-8.980;2023-07-30T02:38:06;100724.73;;;16.38;88.37
57412;BME280;43247;52.828;-8.980;2023-07-30T02:39:06;100724.63;;;16.38;88.35
57412;BME280;43247;52.828;-8.980;2023-07-30T02:40:07;100721.78;;;16.37;88.30
57412;BME280;43247;52.828;-8.980;2023-07-30T02:41:06;100723.03;;;16.37;88.27
57412;BME280;43247;52.828;-8.980;2023-07-30T02:42:06;100720.67;;;16.37;88.19
57412;BME280;43247;52.828;-8.980;2023-07-30T02:43:07;100721.03;;;16.36;88.17
57412;BME280;43247;52.828;-8.980;2023-07-30T02:44:07;100719.11;;;16.36;88.27
57412;BME280;43247;52.828;-8.980;2023-07-30T02:45:07;100719.93;;;16.35;88.25
57412;BME280;43247;52.828;-8.980;2023-07-30T02:46:07;100717.85;;;16.35;88.27
57412;BME280;43247;52.828;-8.980;2023-07-30T02:47:07;100718.00;;;16.35;88.22
57412;BME280;43247;52.828;-8.980;2023-07-30T02:48:07;100721.24;;;16.34;88.19
57412;BME280;43247;52.828;-8.980;2023-07-30T02:49:07;100727.60;;;16.34;88.23
57412;BME280;43247;52.828;-8.980;2023-07-30T02:50:09;100726.87;;;16.34;88.25
57412;BME280;43247;52.828;-8.980;2023-07-30T02:51:08;100723.05;;;16.34;88.30
57412;BME280;43247;52.828;-8.980;2023-07-30T02:52:08;100724.76;;;16.34;88.31
57412;BME280;43247;52.828;-8.980;2023-07-30T02:53:08;100723.47;;;16.34;88.28
57412;BME280;43247;52.828;-8.980;2023-07-30T02:54:08;100725.39;;;16.34;88.21
57412;BME280;43247;52.828;-8.980;2023-07-30T02:55:08;100726.24;;;16.34;88.16
57412;BME280;43247;52.828;-8.980;2023-07-30T02:56:08;100730.62;;;16.34;88.13
57412;BME280;43247;52.828;-8.980;2023-07-30T02:57:09;100731.30;;;16.33;88.20
57412;BME280;43247;52.828;-8.980;2023-07-30T02:58:09;100731.30;;;16.33;88.18
57412;BME280;43247;52.828;-8.980;2023-07-30T02:59:09;100736.33;;;16.33;88.15
57412;BME280;43247;52.828;-8.980;2023-07-30T03:00:10;100733.24;;;16.32;88.16
57412;BME280;43247;52.828;-8.980;2023-07-30T03:01:09;100733.30;;;16.32;88.14
57412;BME280;43247;52.828;-8.980;2023-07-30T03:02:09;100737.52;;;16.32;88.20
57412;BME280;43247;52.828;-8.980;2023-07-30T03:03:10;100737.91;;;16.32;88.12
57412;BME280;43247;52.828;-8.980;2023-07-30T03:04:10;100739.80;;;16.32;88.17
57412;BME280;43247;52.828;-8.980;2023-07-30T03:05:10;100740.43;;;16.32;88.15
57412;BME280;43247;52.828;-8.980;2023-07-30T03:06:11;100741.28;;;16.31;88.22
57412;BME280;43247;52.828;-8.980;2023-07-30T03:07:11;100743.74;;;16.31;88.20
57412;BME280;43247;52.828;-8.980;2023-07-30T03:08:11;100742.07;;;16.31;88.17
57412;BME280;43247;52.828;-8.980;2023-07-30T03:09:11;100743.43;;;16.31;88.20
57412;BME280;43247;52.828;-8.980;2023-07-30T03:10:11;100746.15;;;16.31;88.18
57412;BME280;43247;52.828;-8.980;2023-07-30T03:11:11;100746.19;;;16.30;88.28
57412;BME280;43247;52.828;-8.980;2023-07-30T03:12:11;100744.60;;;16.31;88.22
57412;BME280;43247;52.828;-8.980;2023-07-30T03:13:11;100742.22;;;16.31;88.25
57412;BME280;43247;52.828;-8.980;2023-07-30T03:14:12;100740.15;;;16.31;88.24
57412;BME280;43247;52.828;-8.980;2023-07-30T03:15:12;100740.88;;;16.31;88.30
57412;BME280;43247;52.828;-8.980;2023-07-30T03:16:12;100739.00;;;16.30;88.31
57412;BME280;43247;52.828;-8.980;2023-07-30T03:17:12;100738.53;;;16.30;88.25
57412;BME280;43247;52.828;-8.980;2023-07-30T03:18:12;100737.28;;;16.29;88.22
57412;BME280;43247;52.828;-8.980;2023-07-30T03:19:13;100738.02;;;16.29;88.21
57412;BME280;43247;52.828;-8.980;2023-07-30T03:20:12;100739.49;;;16.29;88.26
57412;BME280;43247;52.828;-8.980;2023-07-30T03:21:13;100738.57;;;16.29;88.30
57412;BME280;43247;52.828;-8.980;2023-07-30T03:22:13;100737.17;;;16.29;88.31
57412;BME280;43247;52.828;-8.980;2023-07-30T03:23:13;100737.06;;;16.29;88.34
57412;BME280;43247;52.828;-8.980;2023-07-30T03:24:13;100734.15;;;16.29;88.42
57412;BME280;43247;52.828;-8.980;2023-07-30T03:25:14;100730.19;;;16.28;88.47
57412;BME280;43247;52.828;-8.980;2023-07-30T03:26:13;100732.54;;;16.28;88.42
57412;BME280;43247;52.828;-8.980;2023-07-30T03:27:13;100730.99;;;16.28;88.43
57412;BME280;43247;52.828;-8.980;2023-07-30T03:28:14;100731.38;;;16.28;88.43
57412;BME280;43247;52.828;-8.980;2023-07-30T03:29:14;100729.39;;;16.27;88.41
57412;BME280;43247;52.828;-8.980;2023-07-30T03:30:14;100728.44;;;16.27;88.47
57412;BME280;43247;52.828;-8.980;2023-07-30T03:31:14;100726.40;;;16.27;88.43
57412;BME280;43247;52.828;-8.980;2023-07-30T03:32:14;100724.54;;;16.27;88.40
57412;BME280;43247;52.828;-8.980;2023-07-30T03:33:14;100726.83;;;16.27;88.37
57412;BME280;43247;52.828;-8.980;2023-07-30T03:34:15;100726.05;;;16.27;88.36
57412;BME280;43247;52.828;-8.980;2023-07-30T03:35:15;100728.89;;;16.26;88.34
57412;BME280;43247;52.828;-8.980;2023-07-30T03:36:15;100731.54;;;16.26;88.40
57412;BME280;43247;52.828;-8.980;2023-07-30T03:37:15;100733.75;;;16.26;88.41
57412;BME280;43247;52.828;-8.980;2023-07-30T03:38:15;100733.20;;;16.25;88.36
57412;BME280;43247;52.828;-8.980;2023-07-30T03:39:15;100732.52;;;16.25;88.40
57412;BME280;43247;52.828;-8.980;2023-07-30T03:40:16;100730.22;;;16.25;88.42
57412;BME280;43247;52.828;-8.980;2023-07-30T03:41:16;100728.54;;;16.25;88.36
57412;BME280;43247;52.828;-8.980;2023-07-30T03:42:16;100727.38;;;16.25;88.39
57412;BME280;43247;52.828;-8.980;2023-07-30T03:43:16;100733.53;;;16.25;88.40
57412;BME280;43247;52.828;-8.980;2023-07-30T03:44:16;100734.28;;;16.25;88.39
57412;BME280;43247;52.828;-8.980;2023-07-30T03:45:16;100733.05;;;16.24;88.42
57412;BME280;43247;52.828;-8.980;2023-07-30T03:46:16;100731.78;;;16.24;88.46
57412;BME280;43247;52.828;-8.980;2023-07-30T03:47:17;100731.56;;;16.24;88.43
57412;BME280;43247;52.828;-8.980;2023-07-30T03:48:17;100731.39;;;16.23;88.47
57412;BME280;43247;52.828;-8.980;2023-07-30T03:49:17;100730.84;;;16.24;88.39
57412;BME280;43247;52.828;-8.980;2023-07-30T03:50:17;100730.66;;;16.24;88.39
57412;BME280;43247;52.828;-8.980;2023-07-30T03:51:17;100727.99;;;16.23;88.41
57412;BME280;43247;52.828;-8.980;2023-07-30T03:52:17;100726.78;;;16.23;88.38
57412;BME280;43247;52.828;-8.980;2023-07-30T03:53:17;100728.28;;;16.23;88.40
57412;BME280;43247;52.828;-8.980;2023-07-30T03:54:17;100727.06;;;16.23;88.38
57412;BME280;43247;52.828;-8.980;2023-07-30T03:55:18;100726.56;;;16.23;88.45
57412;BME280;43247;52.828;-8.980;2023-07-30T03:56:18;100729.84;;;16.23;88.45
57412;BME280;43247;52.828;-8.980;2023-07-30T03:57:18;100730.68;;;16.23;88.46
57412;BME280;43247;52.828;-8.980;2023-07-30T03:58:19;100731.42;;;16.23;88.44
57412;BME280;43247;52.828;-8.980;2023-07-30T03:59:19;100728.44;;;16.23;88.40
57412;BME280;43247;52.828;-8.980;2023-07-30T04:00:19;100717.71;;;16.23;88.42
57412;BME280;43247;52.828;-8.980;2023-07-30T04:01:19;100704.22;;;16.23;88.46
57412;BME280;43247;52.828;-8.980;2023-07-30T04:02:19;100696.90;;;16.23;88.43
57412;BME280;43247;52.828;-8.980;2023-07-30T04:03:19;100694.37;;;16.23;88.41
57412;BME280;43247;52.828;-8.980;2023-07-30T04:04:20;100694.48;;;16.23;88.44
57412;BME280;43247;52.828;-8.980;2023-07-30T04:05:20;100700.52;;;16.23;88.48
57412;BME280;43247;52.828;-8.980;2023-07-30T04:06:20;100704.98;;;16.23;88.43
57412;BME280;43247;52.828;-8.980;2023-07-30T04:07:20;100714.94;;;16.23;88.46
57412;BME280;43247;52.828;-8.980;2023-07-30T04:08:20;100715.91;;;16.23;88.48
57412;BME280;43247;52.828;-8.980;2023-07-30T04:09:20;100722.68;;;16.23;88.48
57412;BME280;43247;52.828;-8.980;2023-07-30T04:10:20;100724.15;;;16.23;88.51
57412;BME280;43247;52.828;-8.980;2023-07-30T04:11:20;100718.63;;;16.23;88.47
57412;BME280;43247;52.828;-8.980;2023-07-30T04:12:22;100711.43;;;16.23;88.52
57412;BME280;43247;52.828;-8.980;2023-07-30T04:13:21;100708.66;;;16.23;88.47
57412;BME280;43247;52.828;-8.980;2023-07-30T04:14:21;100707.26;;;16.23;88.54
57412;BME280;43247;52.828;-8.980;2023-07-30T04:15:21;100705.19;;;16.23;88.58
57412;BME280;43247;52.828;-8.980;2023-07-30T04:16:21;100702.91;;;16.23;88.59
57412;BME280;43247;52.828;-8.980;2023-07-30T04:17:21;100701.16;;;16.23;88.68
57412;BME280;43247;52.828;-8.980;2023-07-30T04:18:22;100700.71;;;16.23;88.68
57412;BME280;43247;52.828;-8.980;2023-07-30T04:19:22;100706.57;;;16.24;88.69
57412;BME280;43247;52.828;-8.980;2023-07-30T04:20:22;100709.03;;;16.23;88.79
57412;BME280;43247;52.828;-8.980;2023-07-30T04:21:22;100710.39;;;16.23;88.72
57412;BME280;43247;52.828;-8.980;2023-07-30T04:22:23;100715.06;;;16.23;88.66
57412;BME280;43247;52.828;-8.980;2023-07-30T04:23:23;100715.97;;;16.23;88.58
57412;BME280;43247;52.828;-8.980;2023-07-30T04:24:23;100712.84;;;16.24;88.70
57412;BME280;43247;52.828;-8.980;2023-07-30T04:25:23;100714.87;;;16.23;88.70
57412;BME280;43247;52.828;-8.980;2023-07-30T04:26:24;100714.71;;;16.23;88.63
57412;BME280;43247;52.828;-8.980;2023-07-30T04:27:24;100716.80;;;16.23;88.75
57412;BME280;43247;52.828;-8.980;2023-07-30T04:28:24;100713.64;;;16.23;88.66
57412;BME280;43247;52.828;-8.980;2023-07-30T04:29:24;100713.25;;;16.23;88.72
57412;BME280;43247;52.828;-8.980;2023-07-30T04:30:24;100716.86;;;16.24;88.71
57412;BME280;43247;52.828;-8.980;2023-07-30T04:31:24;100720.15;;;16.23;88.73
57412;BME280;43247;52.828;-8.980;2023-07-30T04:32:24;100719.85;;;16.23;88.65
57412;BME280;43247;52.828;-8.980;2023-07-30T04:33:25;100721.14;;;16.23;88.66
57412;BME280;43247;52.828;-8.980;2023-07-30T04:34:25;100721.47;;;16.23;88.65
57412;BME280;43247;52.828;-8.980;2023-07-30T04:35:25;100720.72;;;16.23;88.61
57412;BME280;43247;52.828;-8.980;2023-07-30T04:36:25;100722.28;;;16.22;88.57
57412;BME280;43247;52.828;-8.980;2023-07-30T04:37:25;100723.97;;;16.22;88.56
57412;BME280;43247;52.828;-8.980;2023-07-30T04:38:25;100725.69;;;16.22;88.62
57412;BME280;43247;52.828;-8.980;2023-07-30T04:39:26;100727.40;;;16.22;88.71
57412;BME280;43247;52.828;-8.980;2023-07-30T04:40:26;100728.95;;;16.22;88.67
57412;BME280;43247;52.828;-8.980;2023-07-30T04:41:26;100730.16;;;16.22;88.61
57412;BME280;43247;52.828;-8.980;2023-07-30T04:42:26;100728.46;;;16.22;88.55
57412;BME280;43247;52.828;-8.980;2023-07-30T04:43:27;100725.63;;;16.21;88.53
57412;BME280;43247;52.828;-8.980;2023-07-30T04:44:27;100725.24;;;16.21;88.55
57412;BME280;43247;52.828;-8.980;2023-07-30T04:45:27;100724.35;;;16.21;88.64
57412;BME280;43247;52.828;-8.980;2023-07-30T04:46:27;100725.39;;;16.21;88.61
57412;BME280;43247;52.828;-8.980;2023-07-30T04:47:27;100726.04;;;16.20;88.58
57412;BME280;43247;52.828;-8.980;2023-07-30T04:48:27;100723.81;;;16.20;88.55
57412;BME280;43247;52.828;-8.980;2023-07-30T04:49:27;100722.33;;;16.20;88.54
57412;BME280;43247;52.828;-8.980;2023-07-30T04:50:28;100722.07;;;16.20;88.58
57412;BME280;43247;52.828;-8.980;2023-07-30T04:51:28;100717.98;;;16.20;88.62
57412;BME280;43247;52.828;-8.980;2023-07-30T04:52:28;100720.59;;;16.19;88.52
57412;BME280;43247;52.828;-8.980;2023-07-30T04:53:28;100716.84;;;16.19;88.54
57412;BME280;43247;52.828;-8.980;2023-07-30T04:54:28;100715.81;;;16.18;88.46
57412;BME280;43247;52.828;-8.980;2023-07-30T04:55:28;100715.95;;;16.18;88.51
57412;BME280;43247;52.828;-8.980;2023-07-30T04:56:29;100711.64;;;16.18;88.49
57412;BME280;43247;52.828;-8.980;2023-07-30T04:57:29;100709.51;;;16.17;88.49
57412;BME280;43247;52.828;-8.980;2023-07-30T04:58:29;100706.80;;;16.17;88.48
57412;BME280;43247;52.828;-8.980;2023-07-30T04:59:29;100704.75;;;16.17;88.41
57412;BME280;43247;52.828;-8.980;2023-07-30T05:00:29;100707.60;;;16.16;88.44
57412;BME280;43247;52.828;-8.980;2023-07-30T05:01:29;100714.87;;;16.16;88.45
57412;BME280;43247;52.828;-8.980;2023-07-30T05:02:30;100717.96;;;16.16;88.47
57412;BME280;43247;52.828;-8.980;2023-07-30T05:03:30;100720.53;;;16.16;88.41
57412;BME280;43247;52.828;-8.980;2023-07-30T05:04:30;100720.52;;;16.15;88.41
57412;BME280;43247;52.828;-8.980;2023-07-30T05:05:30;100721.06;;;16.15;88.52
57412;BME280;43247;52.828;-8.980;2023-07-30T05:06:30;100719.07;;;16.15;88.54
57412;BME280;43247;52.828;-8.980;2023-07-30T05:07:30;100719.38;;;16.15;88.55
57412;BME280;43247;52.828;-8.980;2023-07-30T05:08:30;100722.74;;;16.14;88.62
57412;BME280;43247;52.828;-8.980;2023-07-30T05:09:31;100725.00;;;16.14;88.61
57412;BME280;43247;52.828;-8.980;2023-07-30T05:10:31;100724.17;;;16.14;88.50